createdAt,value
2022-10-01T00:00:32.074Z,99988.22
2022-10-01T00:05:33.629Z,99986.13
2022-10-01T00:10:39.992Z,99985.25
2022-10-01T00:15:42.055Z,99997.19
2022-10-01T00:20:43.945Z,100001.81
2022-10-01T00:25:45.476Z,99998.25
2022-10-01T00:30:48.021Z,99993.84
2022-10-01T00:35:53.545Z,99999.91
2022-10-01T00:40:55.562Z,99994.72
2022-10-01T00:46:02.664Z,99989.06
2022-10-01T00:51:06.519Z,99983.19
2022-10-01T00:56:08.148Z,99974.66
2022-10-01T01:01:09.818Z,99970.25
2022-10-01T01:06:11.422Z,99963.78
2022-10-01T01:11:40.179Z,99962.50
2022-10-01T01:17:08.532Z,99952.69
2022-10-01T01:22:13.473Z,99930.72
2022-10-01T01:28:03.319Z,99922.75
2022-10-01T01:33:18.126Z,99918.38
2022-10-01T01:38:24.477Z,99908.31
2022-10-01T01:43:31.290Z,99896.63
2022-10-01T01:48:36.507Z,99904.97
2022-10-01T01:53:39.003Z,99894.50
2022-10-01T01:58:40.739Z,99898.31
2022-10-01T02:03:42.272Z,99901.63
2022-10-01T02:08:52.095Z,99895.94
2022-10-01T02:14:05.736Z,99898.66
2022-10-01T02:19:24.590Z,99886.91
2022-10-01T02:24:47.529Z,99870.75
2022-10-01T02:29:50.928Z,99877.66
2022-10-01T02:34:54.003Z,99876.16
2022-10-01T02:39:57.777Z,99876.31
2022-10-01T02:45:03.461Z,99878.31
2022-10-01T02:50:07.565Z,99888.75
2022-10-01T02:55:20.288Z,99883.88
2022-10-01T03:00:21.859Z,99875.22
2022-10-01T03:05:24.124Z,99876.88
2022-10-01T03:10:25.716Z,99870.56
2022-10-01T03:15:28.619Z,99864.19
2022-10-01T03:20:30.221Z,99865.13
2022-10-01T03:25:32.017Z,99858.19
2022-10-01T03:30:34.349Z,99855.63
2022-10-01T03:35:35.876Z,99850.94
2022-10-01T03:40:39.015Z,99834.75
2022-10-01T03:45:40.592Z,99829.59
2022-10-01T03:50:42.152Z,99828.88
2022-10-01T03:55:43.662Z,99814.00
2022-10-01T04:00:47.154Z,99795.16
2022-10-01T04:05:48.726Z,99800.47
2022-10-01T04:10:50.823Z,99802.28
2022-10-01T04:15:52.578Z,99797.72
2022-10-01T04:20:54.192Z,99791.34
2022-10-01T04:25:59.258Z,99799.22
2022-10-01T04:31:19.568Z,99802.47
2022-10-01T04:36:22.037Z,99810.19
2022-10-01T04:41:23.915Z,99818.97
2022-10-01T04:46:25.537Z,99834.56
2022-10-01T04:51:27.165Z,99822.53
2022-10-01T04:56:28.668Z,99835.31
2022-10-01T05:01:32.035Z,99827.44
2022-10-01T05:06:34.057Z,99822.31
2022-10-01T05:11:36.129Z,99816.75
2022-10-01T05:16:37.970Z,99815.19
2022-10-01T05:21:39.582Z,99809.34
2022-10-01T05:26:41.184Z,99806.03
2022-10-01T05:31:44.369Z,99786.75
2022-10-01T05:36:46.025Z,99781.53
2022-10-01T05:41:47.553Z,99772.25
2022-10-01T05:46:49.166Z,99770.34
2022-10-01T05:51:50.839Z,99752.03
2022-10-01T05:56:53.513Z,99744.16
2022-10-01T06:01:55.083Z,99756.78
2022-10-01T06:06:56.762Z,99741.56
2022-10-01T06:11:58.437Z,99767.59
2022-10-01T06:16:59.931Z,99781.28
2022-10-01T06:22:01.412Z,99775.44
2022-10-01T06:27:02.935Z,99788.44
2022-10-01T06:32:04.494Z,99790.44
2022-10-01T06:37:06.065Z,99762.34
2022-10-01T06:42:09.979Z,99749.00
2022-10-01T06:47:11.512Z,99763.66
2022-10-01T06:52:31.602Z,99768.66
2022-10-01T06:57:34.275Z,99738.03
2022-10-01T07:02:36.280Z,99731.28
2022-10-01T07:07:41.225Z,99746.97
2022-10-01T07:12:42.754Z,99755.78
2022-10-01T07:17:46.354Z,99753.72
2022-10-01T07:22:48.928Z,99754.91
2022-10-01T07:27:54.256Z,99750.63
2022-10-01T07:32:55.861Z,99760.25
2022-10-01T07:37:57.398Z,99747.84
2022-10-01T07:42:59.000Z,99767.66
2022-10-01T07:48:02.537Z,99771.63
2022-10-01T07:53:04.661Z,99781.88
2022-10-01T07:58:06.223Z,99780.19
2022-10-01T08:03:12.070Z,99784.09
2022-10-01T08:08:13.633Z,99790.31
2022-10-01T08:13:17.613Z,99808.41
2022-10-01T08:18:23.204Z,99810.81
2022-10-01T08:23:24.883Z,99816.53
2022-10-01T08:28:26.493Z,99823.44
2022-10-01T08:33:28.042Z,99816.38
2022-10-01T08:38:29.576Z,99809.94
2022-10-01T08:43:31.083Z,99810.09
2022-10-01T08:48:38.731Z,99809.69
2022-10-01T08:53:45.525Z,99806.47
2022-10-01T08:58:56.391Z,99811.03
2022-10-01T09:03:59.415Z,99814.94
2022-10-01T09:09:26.373Z,99820.41
2022-10-01T09:14:37.078Z,99821.41
2022-10-01T09:20:00.403Z,99827.47
2022-10-01T09:25:22.271Z,99835.41
2022-10-01T09:30:25.201Z,99826.28
2022-10-01T09:35:56.620Z,99819.75
2022-10-01T09:40:59.187Z,99818.16
2022-10-01T09:46:03.180Z,99807.91
2022-10-01T09:51:22.212Z,99796.97
2022-10-01T09:56:29.612Z,99812.09
2022-10-01T10:01:45.829Z,99805.59
2022-10-01T10:06:47.999Z,99808.41
2022-10-01T10:11:49.563Z,99830.88
2022-10-01T10:16:51.165Z,99820.63
2022-10-01T10:21:57.010Z,99821.78
2022-10-01T10:27:01.560Z,99827.19
2022-10-01T10:32:11.268Z,99824.34
2022-10-01T10:37:16.976Z,99828.75
2022-10-01T10:42:19.798Z,99831.75
2022-10-01T10:47:22.890Z,99824.34
2022-10-01T10:52:36.674Z,99828.75
2022-10-01T10:57:38.347Z,99833.72
2022-10-01T11:02:48.416Z,99844.78
2022-10-01T11:07:53.115Z,99857.97
2022-10-01T11:13:18.544Z,99854.13
2022-10-01T11:18:44.565Z,99849.66
2022-10-01T11:24:22.365Z,99858.34
2022-10-01T11:29:46.994Z,99861.75
2022-10-01T11:35:26.138Z,99874.66
2022-10-01T11:40:35.898Z,99876.50
2022-10-01T11:45:45.835Z,99882.13
2022-10-01T11:50:49.612Z,99882.56
2022-10-01T11:56:16.436Z,99889.28
2022-10-01T12:01:23.706Z,99892.94
2022-10-01T12:06:33.887Z,99909.34
2022-10-01T12:11:52.638Z,99909.78
2022-10-01T12:17:18.024Z,99926.00
2022-10-01T12:22:39.491Z,99926.38
2022-10-01T12:27:54.662Z,99937.78
2022-10-01T12:33:08.087Z,99941.41
2022-10-01T12:38:15.475Z,99946.84
2022-10-01T12:43:29.529Z,99945.22
2022-10-01T12:48:39.961Z,99950.03
2022-10-01T12:53:47.465Z,99951.59
2022-10-01T12:59:13.721Z,99946.91
2022-10-01T13:04:30.611Z,99947.59
2022-10-01T13:09:50.139Z,99952.34
2022-10-01T13:14:53.611Z,99963.41
2022-10-01T13:20:05.220Z,99963.41
2022-10-01T13:25:30.701Z,99959.00
2022-10-01T13:30:45.163Z,99959.56
2022-10-01T13:35:58.531Z,99968.13
2022-10-01T13:41:03.730Z,99978.59
2022-10-01T13:46:10.685Z,99964.75
2022-10-01T13:51:14.705Z,99959.50
2022-10-01T13:56:32.455Z,99977.75
2022-10-01T14:01:39.958Z,99960.66
2022-10-01T14:06:49.919Z,99978.34
2022-10-01T14:12:12.790Z,99979.16
2022-10-01T14:17:15.509Z,99977.50
2022-10-01T14:22:40.720Z,99988.25
2022-10-01T14:27:42.191Z,99996.00
2022-10-01T14:33:07.956Z,99995.91
2022-10-01T14:38:20.649Z,100000.47
2022-10-01T14:43:30.827Z,99988.13
2022-10-01T14:48:35.043Z,99986.03
2022-10-01T14:53:42.577Z,100005.13
2022-10-01T14:58:47.563Z,99998.50
2022-10-01T15:03:50.675Z,100015.63
2022-10-01T15:08:54.854Z,100014.81
2022-10-01T15:14:06.943Z,100012.63
2022-10-01T15:19:21.004Z,100025.88
2022-10-01T15:24:44.239Z,100025.03
2022-10-01T15:29:46.819Z,100036.88
2022-10-01T15:34:52.373Z,100030.50
2022-10-01T15:39:54.437Z,100019.75
2022-10-01T15:45:08.043Z,100036.56
2022-10-01T15:50:09.540Z,100031.84
2022-10-01T15:55:15.523Z,100043.91
2022-10-01T16:00:22.501Z,100057.94
2022-10-01T16:05:35.964Z,100042.78
2022-10-01T16:10:40.829Z,100054.66
2022-10-01T16:15:42.361Z,100054.09
2022-10-01T16:20:46.724Z,100054.63
2022-10-01T16:25:50.595Z,100058.91
2022-10-01T16:30:52.205Z,100056.66
2022-10-01T16:36:08.308Z,100051.06
2022-10-01T16:41:13.858Z,100066.97
2022-10-01T16:46:15.561Z,100055.88
2022-10-01T16:51:18.029Z,100056.94
2022-10-01T16:56:23.572Z,100084.19
2022-10-01T17:01:28.911Z,100091.34
2022-10-01T17:06:30.454Z,100100.66
2022-10-01T17:11:32.217Z,100092.31
2022-10-01T17:16:34.473Z,100104.13
2022-10-01T17:21:36.592Z,100101.59
2022-10-01T17:26:43.172Z,100105.13
2022-10-01T17:31:46.608Z,100107.63
2022-10-01T17:36:48.432Z,100120.69
2022-10-01T17:41:49.932Z,100123.16
2022-10-01T17:46:51.470Z,100126.19
2022-10-01T17:51:53.446Z,100150.22
2022-10-01T17:56:55.327Z,100171.47
2022-10-01T18:01:57.268Z,100197.88
2022-10-01T18:06:59.819Z,100212.34
2022-10-01T18:12:02.258Z,100213.69
2022-10-01T18:17:04.085Z,100241.69
2022-10-01T18:22:13.711Z,100240.38
2022-10-01T18:27:15.738Z,100235.53
2022-10-01T18:32:27.280Z,100227.03
2022-10-01T18:37:46.697Z,100255.94
2022-10-01T18:43:06.338Z,100264.94
2022-10-01T18:48:45.046Z,100273.16
2022-10-01T18:54:04.335Z,100295.13
2022-10-01T18:59:24.758Z,100298.00
2022-10-01T19:04:35.307Z,100287.84
2022-10-01T19:09:43.811Z,100301.34
2022-10-01T19:14:55.880Z,100298.84
2022-10-01T19:20:06.628Z,100319.47
2022-10-01T19:25:26.164Z,100319.41
2022-10-01T19:30:38.454Z,100325.22
2022-10-01T19:35:44.269Z,100334.41
2022-10-01T19:41:08.854Z,100342.78
2022-10-01T19:46:26.543Z,100348.13
2022-10-01T19:51:38.776Z,100354.81
2022-10-01T19:56:41.872Z,100367.72
2022-10-01T20:01:49.328Z,100378.72
2022-10-01T20:06:57.543Z,100395.56
2022-10-01T20:12:15.763Z,100398.06
2022-10-01T20:17:30.500Z,100403.94
2022-10-01T20:22:47.130Z,100414.66
2022-10-01T20:28:10.462Z,100420.75
2022-10-01T20:33:25.709Z,100430.19
2022-10-01T20:39:03.956Z,100427.56
2022-10-01T20:44:09.763Z,100428.75
2022-10-01T20:49:27.967Z,100427.69
2022-10-01T20:54:36.677Z,100437.59
2022-10-01T20:59:48.968Z,100457.41
2022-10-01T21:05:15.080Z,100462.56
2022-10-01T21:10:44.822Z,100462.31
2022-10-01T21:16:15.467Z,100467.22
2022-10-01T21:21:29.397Z,100468.91
2022-10-01T21:26:46.241Z,100477.75
2022-10-01T21:32:02.737Z,100497.59
2022-10-01T21:37:14.037Z,100487.19
2022-10-01T21:42:22.181Z,100494.84
2022-10-01T21:47:38.992Z,100517.91
2022-10-01T21:52:59.549Z,100522.06
2022-10-01T21:58:07.390Z,100524.22
2022-10-01T22:03:08.874Z,100541.59
2022-10-01T22:08:29.020Z,100546.47
2022-10-01T22:13:36.668Z,100548.03
2022-10-01T22:18:57.891Z,100538.09
2022-10-01T22:24:05.960Z,100560.06
2022-10-01T22:29:14.739Z,100550.63
2022-10-01T22:34:22.389Z,100555.91
2022-10-01T22:39:34.297Z,100548.84
2022-10-01T22:44:35.904Z,100558.88
2022-10-01T22:49:49.315Z,100558.75
2022-10-01T22:55:09.164Z,100564.75
2022-10-01T23:00:14.380Z,100560.31
2022-10-01T23:05:38.091Z,100558.91
2022-10-01T23:10:45.717Z,100556.28
2022-10-01T23:16:24.810Z,100560.56
2022-10-01T23:22:02.284Z,100592.50
2022-10-01T23:27:30.964Z,100605.06
2022-10-01T23:32:54.101Z,100612.72
2022-10-01T23:38:08.390Z,100612.47
2022-10-01T23:43:25.788Z,100607.56
2022-10-01T23:48:33.498Z,100609.84
2022-10-01T23:53:45.041Z,100619.41
2022-10-01T23:59:02.891Z,100613.53
